createdAt,value
2018-02-23T00:01:50.527Z,94973.35
2018-02-23T00:04:19.131Z,94974.34
2018-02-23T00:06:47.699Z,94969.87
2018-02-23T00:09:16.282Z,94972.98
2018-02-23T00:11:45.161Z,94974.03
2018-02-23T00:14:13.832Z,94978.09
2018-02-23T00:16:42.468Z,94974.79
2018-02-23T00:19:10.824Z,94975.80
2018-02-23T00:21:39.598Z,94972.69
2018-02-23T00:24:08.101Z,94977.86
2018-02-23T00:26:36.871Z,94972.89
2018-02-23T00:29:05.554Z,94976.66
2018-02-23T00:31:34.238Z,94969.92
2018-02-23T00:34:02.553Z,94970.05
2018-02-23T00:36:30.999Z,94970.39
2018-02-23T00:38:59.881Z,94966.11
2018-02-23T00:41:28.262Z,94970.67
2018-02-23T00:43:56.850Z,94966.74
2018-02-23T00:46:25.327Z,94972.91
2018-02-23T00:48:53.910Z,94952.88
2018-02-23T00:51:22.296Z,94967.47
2018-02-23T00:53:50.765Z,94968.96
2018-02-23T00:56:19.352Z,94969.14
2018-02-23T00:58:47.709Z,94965.80
2018-02-23T01:01:16.214Z,94968.77
2018-02-23T01:03:45.094Z,94966.06
2018-02-23T01:06:13.986Z,94962.02
2018-02-23T01:08:42.470Z,94966.18
2018-02-23T01:11:10.850Z,94960.59
2018-02-23T01:13:39.845Z,94965.16
2018-02-23T01:16:08.677Z,94962.16
2018-02-23T01:18:37.312Z,94961.92
2018-02-23T01:21:06.097Z,94958.43
2018-02-23T01:23:34.825Z,94953.75
2018-02-23T01:26:03.264Z,94957.84
2018-02-23T01:28:31.629Z,94950.81
2018-02-23T01:31:00.221Z,94940.19
2018-02-23T01:33:28.651Z,94946.81
2018-02-23T01:35:57.126Z,94944.81
2018-02-23T01:38:25.565Z,94946.91
2018-02-23T01:40:54.149Z,94946.97
2018-02-23T01:43:22.538Z,94942.88
2018-02-23T01:45:51.106Z,94949.96
2018-02-23T01:48:19.591Z,94951.09
2018-02-23T01:51:00.043Z,94945.33
2018-02-23T01:53:28.633Z,94950.10
2018-02-23T01:55:57.214Z,94948.47
2018-02-23T01:58:26.514Z,94952.20
2018-02-23T02:00:54.790Z,94948.81
2018-02-23T02:03:23.065Z,94945.68
2018-02-23T02:05:51.648Z,94946.27
2018-02-23T02:08:20.418Z,94951.73
2018-02-23T02:10:49.054Z,94952.72
2018-02-23T02:13:17.917Z,94951.30
2018-02-23T02:15:46.897Z,94944.05
2018-02-23T02:18:15.384Z,94944.66
2018-02-23T02:20:43.961Z,94956.00
2018-02-23T02:23:12.341Z,94951.23
2018-02-23T02:25:41.031Z,94950.67
2018-02-23T02:28:09.514Z,94952.62
2018-02-23T02:30:38.002Z,94951.31
2018-02-23T02:33:06.577Z,94954.31
2018-02-23T02:35:35.260Z,94956.70
2018-02-23T02:38:03.354Z,94956.59
2018-02-23T02:40:32.123Z,94958.69
2018-02-23T02:43:00.729Z,94953.57
2018-02-23T02:45:29.136Z,94957.00
2018-02-23T02:47:57.762Z,94953.23
2018-02-23T02:50:26.347Z,94947.64
2018-02-23T02:52:55.954Z,94951.19
2018-02-23T02:55:24.641Z,94943.35
2018-02-23T02:57:53.322Z,94943.91
2018-02-23T03:00:21.505Z,94946.92
2018-02-23T03:02:50.077Z,94949.78
2018-02-23T03:05:18.764Z,94950.11
2018-02-23T03:07:47.184Z,94953.02
2018-02-23T03:10:15.623Z,94949.97
2018-02-23T03:12:44.106Z,94951.24
2018-02-23T03:15:12.890Z,94943.50
2018-02-23T03:17:41.774Z,94949.73
2018-02-23T03:20:10.163Z,94949.55
2018-02-23T03:22:38.535Z,94947.75
2018-02-23T03:25:06.915Z,94840.11
2018-02-23T03:27:35.597Z,94947.56
2018-02-23T03:30:03.862Z,94947.80
2018-02-23T03:32:32.646Z,94951.91
2018-02-23T03:35:01.964Z,94948.23
2018-02-23T03:37:30.441Z,94944.59
2018-02-23T03:39:59.126Z,94948.05
2018-02-23T03:42:27.501Z,94945.09
2018-02-23T03:44:55.881Z,94953.32
2018-02-23T03:47:24.367Z,94951.69
2018-02-23T03:49:52.641Z,94947.44
2018-02-23T03:52:21.143Z,94949.18
2018-02-23T03:54:49.806Z,94955.81
2018-02-23T03:57:17.938Z,94955.66
2018-02-23T03:59:46.667Z,94962.81
2018-02-23T04:02:15.445Z,94960.16
2018-02-23T04:04:43.810Z,94958.64
2018-02-23T04:07:12.315Z,94968.93
2018-02-23T04:09:40.685Z,94962.33
2018-02-23T04:12:08.867Z,94963.20
2018-02-23T04:14:37.337Z,94968.34
2018-02-23T04:17:05.608Z,94962.87
2018-02-23T04:19:34.713Z,94961.28
2018-02-23T04:22:03.497Z,94963.41
2018-02-23T04:24:32.290Z,94967.48
2018-02-23T04:27:00.974Z,94960.05
2018-02-23T04:29:29.364Z,94959.64
2018-02-23T04:31:57.843Z,94960.69
2018-02-23T04:34:26.309Z,94960.56
2018-02-23T04:36:54.787Z,94956.84
2018-02-23T04:39:23.273Z,94953.02
2018-02-23T04:41:51.956Z,94958.06
2018-02-23T04:44:20.356Z,94956.46
2018-02-23T04:46:48.818Z,94966.64
2018-02-23T04:49:17.402Z,94966.24
2018-02-23T04:51:45.847Z,94967.27
2018-02-23T04:54:14.261Z,94972.60
2018-02-23T04:56:42.847Z,94961.11
2018-02-23T04:59:11.404Z,94963.77
2018-02-23T05:01:39.813Z,94960.44
2018-02-23T05:04:08.694Z,94963.64
2018-02-23T05:06:37.052Z,94961.64
2018-02-23T05:09:05.346Z,94968.53
2018-02-23T05:11:33.617Z,94960.45
2018-02-23T05:14:02.062Z,94963.21
2018-02-23T05:16:30.740Z,94971.95
2018-02-23T05:18:59.369Z,94964.87
2018-02-23T05:21:28.067Z,94971.81
2018-02-23T05:23:56.742Z,94958.73
2018-02-23T05:26:25.226Z,94980.00
2018-02-23T05:28:53.631Z,94980.20
2018-02-23T05:31:22.298Z,94983.11
2018-02-23T05:33:50.651Z,94987.31
2018-02-23T05:36:19.146Z,94989.53
2018-02-23T05:38:47.826Z,94997.69
2018-02-23T05:41:16.212Z,94991.42
2018-02-23T05:43:44.206Z,95000.73
2018-02-23T05:46:12.195Z,95001.91
2018-02-23T05:48:40.225Z,95004.84
2018-02-23T05:51:08.217Z,95012.18
2018-02-23T05:53:36.211Z,95009.32
2018-02-23T05:56:04.277Z,95017.92
2018-02-23T05:58:32.293Z,95018.27
2018-02-23T06:01:00.288Z,95016.41
2018-02-23T06:03:28.238Z,95018.09
2018-02-23T06:05:56.260Z,95020.33
2018-02-23T06:08:24.274Z,95018.98
2018-02-23T06:10:52.904Z,95021.08
2018-02-23T06:13:21.363Z,95028.14
2018-02-23T06:15:55.013Z,95027.60
2018-02-23T06:18:28.635Z,95028.95
2018-02-23T06:20:56.584Z,95034.36
2018-02-23T06:23:26.003Z,95038.02
2018-02-23T06:25:54.020Z,95037.86
2018-02-23T06:28:22.023Z,95041.41
2018-02-23T06:30:50.024Z,95034.08
2018-02-23T06:33:18.036Z,95034.84
2018-02-23T06:35:46.046Z,95034.92
2018-02-23T06:38:14.089Z,95029.95
2018-02-23T06:40:42.070Z,95018.52
2018-02-23T06:43:10.112Z,95033.31
2018-02-23T06:45:38.148Z,95032.01
2018-02-23T06:48:06.091Z,95043.77
2018-02-23T06:50:34.063Z,95042.44
2018-02-23T06:53:02.079Z,95044.38
2018-02-23T06:55:30.076Z,95042.23
2018-02-23T06:57:57.998Z,95051.78
2018-02-23T07:00:25.991Z,95057.89
2018-02-23T07:02:53.950Z,95059.12
2018-02-23T07:05:21.940Z,95066.20
2018-02-23T07:07:49.865Z,95057.89
2018-02-23T07:10:17.906Z,95059.95
2018-02-23T07:12:45.851Z,95067.23
2018-02-23T07:15:13.840Z,95065.48
2018-02-23T07:17:41.836Z,95070.91
2018-02-23T07:20:09.850Z,95067.64
2018-02-23T07:22:37.851Z,95072.69
2018-02-23T07:25:06.243Z,95072.96
2018-02-23T07:27:34.290Z,95073.56
2018-02-23T07:30:02.279Z,95070.75
2018-02-23T07:32:30.254Z,95071.53
2018-02-23T07:34:58.231Z,95074.16
2018-02-23T07:37:26.290Z,95061.14
2018-02-23T07:39:54.259Z,95069.78
2018-02-23T07:42:22.169Z,95074.61
2018-02-23T07:44:50.110Z,95077.80
2018-02-23T07:47:18.046Z,95078.00
2018-02-23T07:49:46.400Z,95071.73
2018-02-23T07:52:14.450Z,95077.27
2018-02-23T07:54:42.414Z,95076.91
2018-02-23T07:57:10.358Z,95075.14
2018-02-23T07:59:38.378Z,95082.19
2018-02-23T08:02:06.342Z,95079.63
2018-02-23T08:04:34.269Z,95076.05
2018-02-23T08:07:02.222Z,95078.41
2018-02-23T08:09:30.194Z,95077.19
2018-02-23T08:11:58.182Z,95078.47
2018-02-23T08:14:26.199Z,95084.16
2018-02-23T08:16:54.176Z,95078.84
2018-02-23T08:19:22.121Z,95076.50
2018-02-23T08:21:50.123Z,95072.70
2018-02-23T08:24:18.147Z,95075.64
2018-02-23T08:26:46.491Z,95071.98
2018-02-23T08:29:14.532Z,95062.80
2018-02-23T08:31:42.453Z,95067.70
2018-02-23T08:34:10.447Z,95072.32
2018-02-23T08:36:38.402Z,95066.96
2018-02-23T08:39:06.389Z,95065.28
2018-02-23T08:41:34.339Z,95063.28
2018-02-23T08:44:02.373Z,95065.87
2018-02-23T08:46:30.360Z,95064.59
2018-02-23T08:48:58.347Z,95064.18
2018-02-23T08:51:26.430Z,95068.41
2018-02-23T08:53:54.392Z,95069.83
2018-02-23T08:56:22.426Z,95069.80
2018-02-23T08:58:50.419Z,95064.23
2018-02-23T09:01:18.491Z,95071.69
2018-02-23T09:03:46.529Z,95070.77
2018-02-23T09:06:14.544Z,95072.88
2018-02-23T09:08:42.518Z,95069.26
2018-02-23T09:11:10.542Z,95070.44
2018-02-23T09:13:38.501Z,95065.77
2018-02-23T09:16:06.503Z,95067.84
2018-02-23T09:18:34.476Z,95069.55
2018-02-23T09:21:02.510Z,95064.44
2018-02-23T09:23:30.612Z,95066.30
2018-02-23T09:25:58.724Z,95071.87
2018-02-23T09:28:27.103Z,95058.79
2018-02-23T09:30:55.193Z,95050.07
2018-02-23T09:33:23.562Z,95067.09
2018-02-23T09:35:51.678Z,95065.55
2018-02-23T09:38:19.795Z,95066.33
2018-02-23T09:40:47.842Z,95067.89
2018-02-23T09:43:15.815Z,95061.22
2018-02-23T09:45:43.821Z,95030.22
2018-02-23T09:48:11.696Z,95062.80
2018-02-23T09:50:39.754Z,95066.15
2018-02-23T09:53:07.716Z,95059.37
2018-02-23T09:55:35.708Z,95050.34
2018-02-23T09:58:03.703Z,95054.93
2018-02-23T10:00:31.709Z,95052.63
2018-02-23T10:02:59.692Z,95050.94
2018-02-23T10:05:27.700Z,95060.80
2018-02-23T10:07:55.648Z,95052.84
2018-02-23T10:10:23.663Z,95056.06
2018-02-23T10:12:51.789Z,95058.31
2018-02-23T10:15:19.747Z,95040.74
2018-02-23T10:17:47.740Z,95050.80
2018-02-23T10:20:15.757Z,95045.84
2018-02-23T10:22:43.906Z,95044.89
2018-02-23T10:25:12.032Z,95036.58
2018-02-23T10:27:40.626Z,95045.48
2018-02-23T10:30:09.462Z,95046.34
2018-02-23T10:32:37.753Z,95002.72
2018-02-23T10:35:05.984Z,95035.77
2018-02-23T10:37:34.023Z,95036.74
2018-02-23T10:40:02.051Z,95029.85
2018-02-23T10:42:30.135Z,95027.87
2018-02-23T10:44:58.124Z,95026.25
2018-02-23T10:47:26.094Z,95020.56
2018-02-23T10:49:54.061Z,95018.53
2018-02-23T10:52:22.121Z,95010.72
2018-02-23T10:54:50.096Z,95014.85
2018-02-23T10:57:18.173Z,95004.88
2018-02-23T10:59:46.165Z,95012.98
2018-02-23T11:02:14.186Z,95013.25
2018-02-23T11:04:42.195Z,95008.34
2018-02-23T11:07:11.235Z,95003.84
2018-02-23T11:09:40.153Z,95008.45
2018-02-23T11:12:08.131Z,95008.26
2018-02-23T11:14:36.113Z,95012.34
2018-02-23T11:17:05.198Z,95013.31
2018-02-23T11:19:33.226Z,95005.45
2018-02-23T11:22:01.326Z,95005.18
2018-02-23T11:24:29.273Z,95000.30
2018-02-23T11:26:57.284Z,95000.83
2018-02-23T11:29:25.268Z,94907.52
2018-02-23T11:31:53.456Z,94996.11
2018-02-23T11:34:21.515Z,95001.47
2018-02-23T11:36:49.468Z,94994.31
2018-02-23T11:39:17.403Z,95005.34
2018-02-23T11:41:45.373Z,94996.89
2018-02-23T11:44:13.344Z,95000.43
2018-02-23T11:46:42.378Z,94999.95
2018-02-23T11:49:12.738Z,94993.16
2018-02-23T11:51:40.731Z,94995.66
2018-02-23T11:54:08.750Z,94991.34
2018-02-23T11:56:36.760Z,94986.43
2018-02-23T11:59:05.232Z,94987.26
2018-02-23T12:01:34.894Z,94985.48
2018-02-23T12:04:02.937Z,94987.71
2018-02-23T12:06:30.898Z,94974.73
2018-02-23T12:08:58.868Z,94983.61
2018-02-23T12:11:26.848Z,94973.42
2018-02-23T12:13:54.818Z,94973.03
2018-02-23T12:16:22.806Z,94971.45
2018-02-23T12:18:50.796Z,94981.10
2018-02-23T12:21:18.788Z,94970.36
2018-02-23T12:23:46.795Z,94974.95
2018-02-23T12:26:14.775Z,94962.84
2018-02-23T12:28:42.826Z,94959.89
2018-02-23T12:31:10.762Z,94958.99
2018-02-23T12:33:40.294Z,94959.27
2018-02-23T12:36:08.238Z,94961.88
2018-02-23T12:38:37.120Z,94962.03
2018-02-23T12:41:05.158Z,94963.64
2018-02-23T12:43:33.102Z,94964.18
2018-02-23T12:46:01.031Z,94958.08
2018-02-23T12:48:28.931Z,94980.42
2018-02-23T12:50:56.854Z,94965.54
2018-02-23T12:53:24.827Z,94962.89
2018-02-23T12:55:52.774Z,94963.44
2018-02-23T12:58:20.695Z,94961.50
2018-02-23T13:00:48.629Z,94965.67
2018-02-23T13:03:16.575Z,94976.53
2018-02-23T13:05:44.420Z,94970.03
2018-02-23T13:08:12.413Z,94970.74
2018-02-23T13:10:40.322Z,94960.89
2018-02-23T13:13:08.313Z,94968.83
2018-02-23T13:15:36.306Z,94962.70
2018-02-23T13:18:04.315Z,94966.80
2018-02-23T13:20:32.253Z,94964.60
2018-02-23T13:23:00.199Z,94968.78
2018-02-23T13:25:28.130Z,94960.83
2018-02-23T13:31:11.214Z,94958.40
2018-02-23T13:33:39.313Z,94961.09
2018-02-23T13:36:08.497Z,94958.27
2018-02-23T13:38:36.609Z,94956.91
2018-02-23T13:41:10.570Z,94950.63
2018-02-23T13:43:38.651Z,94951.48
2018-02-23T13:46:06.722Z,94950.73
2018-02-23T13:48:34.806Z,94945.97
2018-02-23T13:51:02.856Z,94948.37
2018-02-23T13:53:36.363Z,94943.95
2018-02-23T13:56:04.443Z,94940.50
2018-02-23T13:58:32.475Z,94941.86
2018-02-23T14:01:00.535Z,94945.34
2018-02-23T14:03:28.513Z,94940.77
2018-02-23T14:05:56.652Z,94941.86
2018-02-23T14:08:24.703Z,94941.81
2018-02-23T14:10:52.700Z,94941.98
2018-02-23T14:13:20.714Z,94941.45
2018-02-23T14:15:48.849Z,94939.92
2018-02-23T14:18:16.863Z,94934.47
2018-02-23T14:20:44.907Z,94930.20
2018-02-23T14:23:12.847Z,94932.92
2018-02-23T14:25:40.889Z,94932.96
2018-02-23T14:28:08.871Z,94930.08
2018-02-23T14:30:36.884Z,94924.55
2018-02-23T14:33:04.901Z,94929.77
2018-02-23T14:35:33.519Z,94925.47
2018-02-23T14:38:01.809Z,94927.84
2018-02-23T14:40:29.816Z,94930.47
2018-02-23T14:42:57.714Z,94933.48
2018-02-23T14:45:25.701Z,94930.22
2018-02-23T14:47:53.754Z,94924.42
2018-02-23T14:50:33.479Z,94928.17
2018-02-23T14:53:01.462Z,94933.45
2018-02-23T14:55:29.364Z,94931.00
2018-02-23T14:57:58.032Z,94924.59
2018-02-23T15:00:25.951Z,94921.95
2018-02-23T15:02:53.917Z,94924.97
2018-02-23T15:05:22.033Z,94929.22
2018-02-23T15:07:50.012Z,94923.67
2018-02-23T15:10:18.222Z,94920.56
2018-02-23T15:12:46.230Z,94923.72
2018-02-23T15:15:14.210Z,94913.64
2018-02-23T15:17:42.153Z,94923.91
2018-02-23T15:20:10.079Z,94919.30
2018-02-23T15:22:38.106Z,94923.36
2018-02-23T15:25:06.015Z,94922.88
2018-02-23T15:27:34.001Z,94922.13
2018-02-23T15:30:01.992Z,94923.55
2018-02-23T15:32:30.861Z,94933.22
2018-02-23T15:34:58.857Z,94931.49
2018-02-23T15:37:26.833Z,94934.44
2018-02-23T15:39:55.286Z,94928.87
2018-02-23T15:42:25.885Z,94928.67
2018-02-23T15:44:53.873Z,94937.10
2018-02-23T15:50:30.698Z,94936.20
2018-02-23T15:52:58.765Z,94935.33
2018-02-23T15:55:27.304Z,94926.16
2018-02-23T15:57:59.266Z,94933.84
2018-02-23T16:00:27.326Z,94937.12
2018-02-23T16:02:55.410Z,94933.65
2018-02-23T16:05:23.429Z,94932.05
2018-02-23T16:07:51.454Z,94933.72
2018-02-23T16:10:19.385Z,94933.76
2018-02-23T16:12:48.206Z,94938.04
2018-02-23T16:15:16.256Z,94941.83
2018-02-23T16:17:44.267Z,94941.52
2018-02-23T16:20:13.531Z,94936.63
2018-02-23T16:22:43.024Z,94938.16
2018-02-23T16:27:47.449Z,94944.03
2018-02-23T16:30:16.277Z,94940.87
2018-02-23T16:32:45.342Z,94943.38
2018-02-23T16:35:13.474Z,94941.70
2018-02-23T16:37:44.309Z,94945.95
2018-02-23T16:40:13.050Z,94944.72
2018-02-23T16:42:40.954Z,94949.86
2018-02-23T16:45:08.973Z,94949.32
2018-02-23T16:47:36.926Z,94956.42
2018-02-23T16:50:04.851Z,94957.42
2018-02-23T16:52:32.862Z,94956.67
2018-02-23T16:55:00.858Z,94957.74
2018-02-23T16:57:28.814Z,94959.94
2018-02-23T16:59:56.813Z,94957.02
2018-02-23T17:02:24.823Z,94958.27
2018-02-23T17:04:52.754Z,94967.05
2018-02-23T17:07:20.818Z,94962.84
2018-02-23T17:09:48.828Z,94965.98
2018-02-23T17:12:16.816Z,94968.03
2018-02-23T17:14:44.779Z,94965.41
2018-02-23T17:17:12.769Z,94961.86
2018-02-23T17:19:40.697Z,94960.96
2018-02-23T17:22:08.686Z,94960.84
2018-02-23T17:24:36.672Z,94964.29
2018-02-23T17:27:04.728Z,94964.50
2018-02-23T17:29:32.788Z,94962.72
2018-02-23T17:32:00.806Z,94956.63
2018-02-23T17:34:28.881Z,94960.67
2018-02-23T17:36:56.898Z,94960.44
2018-02-23T17:39:24.954Z,94947.19
2018-02-23T17:41:53.206Z,94961.45
2018-02-23T17:44:21.211Z,94950.20
2018-02-23T17:46:49.260Z,94961.80
2018-02-23T17:49:18.603Z,94955.59
2018-02-23T17:51:46.587Z,94961.26
2018-02-23T17:54:14.643Z,94962.86
2018-02-23T17:56:42.801Z,94967.11
2018-02-23T17:59:10.822Z,94966.39
2018-02-23T18:01:39.403Z,94963.23
2018-02-23T18:04:07.365Z,94963.09
2018-02-23T18:06:35.569Z,94969.80
2018-02-23T18:09:03.577Z,94969.76
2018-02-23T18:11:31.539Z,94968.38
2018-02-23T18:13:59.513Z,94960.18
2018-02-23T18:16:27.543Z,94965.99
2018-02-23T18:18:55.556Z,94968.22
2018-02-23T18:21:23.532Z,94956.60
2018-02-23T18:23:51.514Z,94956.51
2018-02-23T18:26:19.560Z,94960.69
2018-02-23T18:28:47.543Z,94968.50
2018-02-23T18:31:15.589Z,94962.56
2018-02-23T18:33:44.081Z,94959.25
2018-02-23T18:36:12.112Z,94961.75
2018-02-23T18:38:40.144Z,94959.89
2018-02-23T18:41:08.134Z,94961.36
2018-02-23T18:43:36.616Z,94957.14
2018-02-23T18:46:04.634Z,94950.72
2018-02-23T18:48:32.574Z,94963.05
2018-02-23T18:51:01.205Z,94967.88
2018-02-23T18:53:29.216Z,94966.48
2018-02-23T18:55:57.294Z,94969.05
2018-02-23T18:58:26.195Z,94971.59
2018-02-23T19:00:54.328Z,94969.37
2018-02-23T19:03:22.354Z,94971.80
2018-02-23T19:05:50.384Z,94966.88
2018-02-23T19:08:19.072Z,94971.77
2018-02-23T19:10:47.116Z,94969.97
2018-02-23T19:13:15.200Z,94970.57
2018-02-23T19:15:43.216Z,94975.40
2018-02-23T19:18:11.111Z,94978.19
2018-02-23T19:20:38.956Z,94987.20
2018-02-23T19:23:06.951Z,94978.80
2018-02-23T19:25:34.966Z,94975.41
2018-02-23T19:28:03.075Z,94986.47
2018-02-23T19:30:31.069Z,94982.42
2018-02-23T19:32:59.055Z,94983.55
2018-02-23T19:35:31.216Z,94976.81
2018-02-23T19:37:59.290Z,94986.61
2018-02-23T19:40:27.332Z,94993.83
2018-02-23T19:42:55.478Z,94992.73
2018-02-23T19:45:24.377Z,94986.59
2018-02-23T19:47:53.811Z,94992.77
2018-02-23T19:50:22.669Z,94991.47
2018-02-23T19:52:50.766Z,94998.16
2018-02-23T19:55:18.753Z,94998.16
2018-02-23T19:57:46.785Z,94999.46
2018-02-23T20:00:16.218Z,94985.13
2018-02-23T20:05:28.983Z,94985.03
2018-02-23T20:08:01.447Z,94983.23
2018-02-23T20:10:29.508Z,94984.36
2018-02-23T20:13:00.979Z,94987.53
2018-02-23T20:15:30.964Z,94981.08
2018-02-23T20:18:05.306Z,94988.39
2018-02-23T20:20:35.488Z,94984.41
2018-02-23T20:25:41.375Z,94990.59
2018-02-23T20:28:10.295Z,94983.66
2018-02-23T20:30:39.286Z,94986.88
2018-02-23T20:33:07.260Z,94988.89
2018-02-23T20:35:35.219Z,94937.97
2018-02-23T20:38:03.219Z,94992.07
2018-02-23T20:40:31.258Z,94983.67
2018-02-23T20:43:01.898Z,94981.67
2018-02-23T20:45:30.244Z,94989.58
2018-02-23T20:47:58.220Z,94990.10
2018-02-23T20:50:26.130Z,94985.66
2018-02-23T20:52:54.091Z,94984.20
2018-02-23T20:55:22.088Z,94988.88
2018-02-23T20:57:50.072Z,94992.31
2018-02-23T21:00:18.047Z,94989.89
2018-02-23T21:02:46.038Z,94974.88
2018-02-23T21:05:13.996Z,94990.30
2018-02-23T21:07:42.012Z,94991.23
2018-02-23T21:10:10.095Z,94991.00
2018-02-23T21:12:38.125Z,94985.87
2018-02-23T21:15:06.144Z,94983.45
2018-02-23T21:17:34.118Z,94978.52
2018-02-23T21:20:02.082Z,94986.21
2018-02-23T21:22:30.073Z,94982.72
2018-02-23T21:24:58.063Z,94981.94
2018-02-23T21:27:26.050Z,94978.81
2018-02-23T21:29:53.994Z,94979.59
2018-02-23T21:32:22.000Z,94979.80
2018-02-23T21:34:49.989Z,94985.27
2018-02-23T21:37:17.997Z,94982.81
2018-02-23T21:39:46.009Z,94984.08
2018-02-23T21:42:14.037Z,94982.83
2018-02-23T21:44:48.028Z,94992.02
2018-02-23T21:47:16.450Z,94990.16
2018-02-23T21:49:44.442Z,94994.83
2018-02-23T21:52:12.440Z,94983.23
2018-02-23T21:54:40.486Z,94988.25
2018-02-23T21:57:08.432Z,94988.25
2018-02-23T21:59:36.527Z,94990.88
2018-02-23T22:02:04.525Z,94986.06
2018-02-23T22:04:32.523Z,94982.80
2018-02-23T22:07:00.594Z,94986.02
2018-02-23T22:09:28.539Z,94980.60
2018-02-23T22:11:56.688Z,94986.40
2018-02-23T22:14:24.722Z,94983.38
2018-02-23T22:16:52.704Z,94891.80
2018-02-23T22:19:20.723Z,94989.70
2018-02-23T22:21:48.763Z,94988.38
2018-02-23T22:24:16.779Z,94990.61
2018-02-23T22:26:44.851Z,94986.55
2018-02-23T22:29:12.894Z,94987.06
2018-02-23T22:31:40.918Z,94981.94
2018-02-23T22:34:08.995Z,94982.86
2018-02-23T22:36:37.037Z,94978.72
2018-02-23T22:39:05.131Z,94978.09
2018-02-23T22:41:33.116Z,94986.02
2018-02-23T22:44:01.121Z,94982.85
2018-02-23T22:46:29.129Z,94991.70
2018-02-23T22:48:57.518Z,94995.52
2018-02-23T22:51:25.494Z,94991.87
2018-02-23T22:53:53.474Z,94989.64
2018-02-23T22:56:21.510Z,94989.47
2018-02-23T22:58:49.546Z,94992.61
2018-02-23T23:01:17.560Z,94988.12
2018-02-23T23:03:45.619Z,94989.02
2018-02-23T23:06:13.557Z,94981.91
2018-02-23T23:08:41.579Z,94981.72
2018-02-23T23:11:09.591Z,94995.33
2018-02-23T23:13:37.658Z,94983.38
2018-02-23T23:16:05.662Z,94986.20
2018-02-23T23:18:33.635Z,94981.38
2018-02-23T23:21:01.636Z,94982.29
2018-02-23T23:23:29.559Z,94979.22
2018-02-23T23:25:57.557Z,94984.00
2018-02-23T23:28:25.567Z,94976.89
2018-02-23T23:30:53.532Z,94977.94
2018-02-23T23:33:21.541Z,94974.59
2018-02-23T23:35:49.574Z,94975.69
2018-02-23T23:38:17.647Z,94969.44
2018-02-23T23:40:45.599Z,94967.52
2018-02-23T23:43:13.555Z,94968.11
2018-02-23T23:45:41.482Z,94960.41
2018-02-23T23:48:09.481Z,94958.14
2018-02-23T23:50:37.652Z,94954.04
2018-02-23T23:53:05.603Z,94954.23
2018-02-23T23:55:33.599Z,94950.63
2018-02-23T23:58:01.586Z,94945.55
